sensor_id;sensor_type;location;lat;lon;timestamp;P1;durP1;ratioP1;P2;durP2;ratioP2
4603;SDS011;2314;48.272;11.562;2023-02-01T00:02:23;124.57;;;5.40;;
4603;SDS011;2314;48.272;11.562;2023-02-01T00:04:51;122.97;;;5.00;;
4603;SDS011;2314;48.272;11.562;2023-02-01T00:07:19;125.07;;;4.77;;
4603;SDS011;2314;48.272;11.562;2023-02-01T00:09:46;123.83;;;5.77;;
4603;SDS011;2314;48.272;11.562;2023-02-01T00:12:13;124.57;;;5.60;;
4603;SDS011;2314;48.272;11.562;2023-02-01T00:14:41;126.23;;;5.80;;
4603;SDS011;2314;48.272;11.562;2023-02-01T00:17:08;129.13;;;5.70;;
4603;SDS011;2314;48.272;11.562;2023-02-01T00:19:35;122.27;;;4.97;;
4603;SDS011;2314;48.272;11.562;2023-02-01T00:22:02;125.27;;;5.30;;
4603;SDS011;2314;48.272;11.562;2023-02-01T00:24:30;126.97;;;5.27;;
4603;SDS011;2314;48.272;11.562;2023-02-01T00:26:57;121.37;;;4.43;;
4603;SDS011;2314;48.272;11.562;2023-02-01T00:29:24;123.07;;;5.43;;
4603;SDS011;2314;48.272;11.562;2023-02-01T00:31:51;122.17;;;4.57;;
4603;SDS011;2314;48.272;11.562;2023-02-01T00:34:19;125.37;;;5.63;;
4603;SDS011;2314;48.272;11.562;2023-02-01T00:36:47;122.67;;;5.50;;
4603;SDS011;2314;48.272;11.562;2023-02-01T00:39:15;127.37;;;5.83;;
4603;SDS011;2314;48.272;11.562;2023-02-01T00:41:43;122.77;;;4.90;;
4603;SDS011;2314;48.272;11.562;2023-02-01T00:44:10;122.53;;;5.20;;
4603;SDS011;2314;48.272;11.562;2023-02-01T00:46:37;126.53;;;5.70;;
4603;SDS011;2314;48.272;11.562;2023-02-01T00:49:04;123.93;;;5.90;;
4603;SDS011;2314;48.272;11.562;2023-02-01T00:51:34;123.13;;;5.97;;
4603;SDS011;2314;48.272;11.562;2023-02-01T00:54:01;126.40;;;6.50;;
4603;SDS011;2314;48.272;11.562;2023-02-01T00:56:29;126.77;;;7.07;;
4603;SDS011;2314;48.272;11.562;2023-02-01T00:58:57;127.60;;;6.73;;
4603;SDS011;2314;48.272;11.562;2023-02-01T01:01:25;127.17;;;7.00;;
4603;SDS011;2314;48.272;11.562;2023-02-01T01:03:54;127.33;;;7.10;;
4603;SDS011;2314;48.272;11.562;2023-02-01T01:06:23;127.97;;;7.20;;
4603;SDS011;2314;48.272;11.562;2023-02-01T01:08:52;124.70;;;6.60;;
4603;SDS011;2314;48.272;11.562;2023-02-01T01:11:22;131.87;;;7.63;;
4603;SDS011;2314;48.272;11.562;2023-02-01T01:13:52;128.43;;;7.37;;
4603;SDS011;2314;48.272;11.562;2023-02-01T01:16:23;128.20;;;6.67;;
4603;SDS011;2314;48.272;11.562;2023-02-01T01:18:53;127.90;;;7.57;;
4603;SDS011;2314;48.272;11.562;2023-02-01T01:21:20;127.17;;;7.53;;
4603;SDS011;2314;48.272;11.562;2023-02-01T01:23:47;129.17;;;7.33;;
4603;SDS011;2314;48.272;11.562;2023-02-01T01:26:15;124.97;;;7.13;;
4603;SDS011;2314;48.272;11.562;2023-02-01T01:28:44;128.00;;;6.90;;
4603;SDS011;2314;48.272;11.562;2023-02-01T01:31:12;130.63;;;7.17;;
4603;SDS011;2314;48.272;11.562;2023-02-01T01:33:43;133.07;;;7.87;;
4603;SDS011;2314;48.272;11.562;2023-02-01T01:36:11;129.90;;;8.03;;
4603;SDS011;2314;48.272;11.562;2023-02-01T01:38:38;129.47;;;8.00;;
4603;SDS011;2314;48.272;11.562;2023-02-01T01:41:06;127.57;;;7.53;;
4603;SDS011;2314;48.272;11.562;2023-02-01T01:43:48;126.90;;;7.07;;
4603;SDS011;2314;48.272;11.562;2023-02-01T01:46:21;127.40;;;8.20;;
4603;SDS011;2314;48.272;11.562;2023-02-01T01:48:56;129.20;;;8.43;;
4603;SDS011;2314;48.272;11.562;2023-02-01T01:51:29;131.27;;;8.20;;
4603;SDS011;2314;48.272;11.562;2023-02-01T01:54:02;128.60;;;7.90;;
4603;SDS011;2314;48.272;11.562;2023-02-01T01:56:33;129.40;;;7.93;;
4603;SDS011;2314;48.272;11.562;2023-02-01T01:59:01;135.07;;;7.63;;
4603;SDS011;2314;48.272;11.562;2023-02-01T02:01:30;126.57;;;7.17;;
4603;SDS011;2314;48.272;11.562;2023-02-01T02:03:59;126.47;;;7.87;;
4603;SDS011;2314;48.272;11.562;2023-02-01T02:06:31;128.30;;;7.57;;
4603;SDS011;2314;48.272;11.562;2023-02-01T02:09:07;127.00;;;7.03;;
4603;SDS011;2314;48.272;11.562;2023-02-01T02:11:34;128.27;;;7.90;;
4603;SDS011;2314;48.272;11.562;2023-02-01T02:14:01;131.63;;;7.60;;
4603;SDS011;2314;48.272;11.562;2023-02-01T02:16:40;131.80;;;7.73;;
4603;SDS011;2314;48.272;11.562;2023-02-01T02:19:40;129.97;;;7.77;;
4603;SDS011;2314;48.272;11.562;2023-02-01T02:26:11;130.37;;;7.87;;
4603;SDS011;2314;48.272;11.562;2023-02-01T02:32:21;129.57;;;7.40;;
4603;SDS011;2314;48.272;11.562;2023-02-01T02:35:08;128.77;;;7.43;;
4603;SDS011;2314;48.272;11.562;2023-02-01T02:37:45;128.87;;;7.60;;
4603;SDS011;2314;48.272;11.562;2023-02-01T02:40:21;128.43;;;7.77;;
4603;SDS011;2314;48.272;11.562;2023-02-01T02:42:58;128.40;;;7.23;;
4603;SDS011;2314;48.272;11.562;2023-02-01T02:45:53;129.67;;;7.40;;
4603;SDS011;2314;48.272;11.562;2023-02-01T02:48:46;129.57;;;7.83;;
4603;SDS011;2314;48.272;11.562;2023-02-01T02:51:20;126.43;;;7.27;;
4603;SDS011;2314;48.272;11.562;2023-02-01T02:54:11;127.23;;;6.60;;
4603;SDS011;2314;48.272;11.562;2023-02-01T02:56:59;126.57;;;6.97;;
4603;SDS011;2314;48.272;11.562;2023-02-01T02:59:49;128.87;;;7.30;;
4603;SDS011;2314;48.272;11.562;2023-02-01T03:02:34;128.43;;;7.70;;
4603;SDS011;2314;48.272;11.562;2023-02-01T03:05:19;128.80;;;7.20;;
4603;SDS011;2314;48.272;11.562;2023-02-01T03:07:53;127.30;;;7.60;;
4603;SDS011;2314;48.272;11.562;2023-02-01T03:10:31;128.87;;;7.77;;
4603;SDS011;2314;48.272;11.562;2023-02-01T03:13:08;126.30;;;7.57;;
4603;SDS011;2314;48.272;11.562;2023-02-01T03:15:40;126.67;;;6.70;;
4603;SDS011;2314;48.272;11.562;2023-02-01T03:18:18;129.00;;;8.10;;
4603;SDS011;2314;48.272;11.562;2023-02-01T03:20:51;136.70;;;7.40;;
4603;SDS011;2314;48.272;11.562;2023-02-01T03:23:23;126.47;;;6.90;;
4603;SDS011;2314;48.272;11.562;2023-02-01T03:25:58;126.50;;;6.43;;
4603;SDS011;2314;48.272;11.562;2023-02-01T03:28:29;126.07;;;6.67;;
4603;SDS011;2314;48.272;11.562;2023-02-01T03:30:58;127.17;;;7.00;;
4603;SDS011;2314;48.272;11.562;2023-02-01T03:33:26;126.87;;;7.00;;
4603;SDS011;2314;48.272;11.562;2023-02-01T03:35:57;126.67;;;7.60;;
4603;SDS011;2314;48.272;11.562;2023-02-01T03:38:34;127.23;;;6.97;;
4603;SDS011;2314;48.272;11.562;2023-02-01T03:41:08;127.90;;;6.60;;
4603;SDS011;2314;48.272;11.562;2023-02-01T03:43:41;126.40;;;7.30;;
4603;SDS011;2314;48.272;11.562;2023-02-01T03:46:20;125.87;;;6.77;;
4603;SDS011;2314;48.272;11.562;2023-02-01T03:48:57;133.70;;;6.80;;
4603;SDS011;2314;48.272;11.562;2023-02-01T03:51:28;132.90;;;7.07;;
4603;SDS011;2314;48.272;11.562;2023-02-01T03:53:58;125.47;;;6.10;;
4603;SDS011;2314;48.272;11.562;2023-02-01T03:56:28;130.47;;;7.37;;
4603;SDS011;2314;48.272;11.562;2023-02-01T03:58:57;127.20;;;7.07;;
4603;SDS011;2314;48.272;11.562;2023-02-01T04:01:25;127.90;;;6.80;;
4603;SDS011;2314;48.272;11.562;2023-02-01T04:03:54;126.30;;;6.90;;
4603;SDS011;2314;48.272;11.562;2023-02-01T04:06:23;125.27;;;6.43;;
4603;SDS011;2314;48.272;11.562;2023-02-01T04:08:50;126.77;;;6.53;;
4603;SDS011;2314;48.272;11.562;2023-02-01T04:11:19;128.27;;;6.77;;
4603;SDS011;2314;48.272;11.562;2023-02-01T04:13:46;124.73;;;6.40;;
4603;SDS011;2314;48.272;11.562;2023-02-01T04:16:13;124.50;;;6.33;;
4603;SDS011;2314;48.272;11.562;2023-02-01T04:18:40;127.47;;;6.80;;
4603;SDS011;2314;48.272;11.562;2023-02-01T04:21:07;126.80;;;6.60;;
4603;SDS011;2314;48.272;11.562;2023-02-01T04:23:34;125.00;;;6.07;;
4603;SDS011;2314;48.272;11.562;2023-02-01T04:26:02;132.70;;;7.17;;
4603;SDS011;2314;48.272;11.562;2023-02-01T04:28:32;127.37;;;6.33;;
4603;SDS011;2314;48.272;11.562;2023-02-01T04:30:59;125.77;;;6.67;;
4603;SDS011;2314;48.272;11.562;2023-02-01T04:33:26;127.10;;;6.60;;
4603;SDS011;2314;48.272;11.562;2023-02-01T04:35:53;127.20;;;6.30;;
4603;SDS011;2314;48.272;11.562;2023-02-01T04:38:20;133.10;;;7.03;;
4603;SDS011;2314;48.272;11.562;2023-02-01T04:40:47;132.50;;;7.27;;
4603;SDS011;2314;48.272;11.562;2023-02-01T04:43:15;129.63;;;6.03;;
4603;SDS011;2314;48.272;11.562;2023-02-01T04:45:47;124.73;;;6.30;;
4603;SDS011;2314;48.272;11.562;2023-02-01T04:48:15;125.87;;;6.20;;
4603;SDS011;2314;48.272;11.562;2023-02-01T04:50:44;126.07;;;6.07;;
4603;SDS011;2314;48.272;11.562;2023-02-01T04:53:12;125.33;;;6.27;;
4603;SDS011;2314;48.272;11.562;2023-02-01T04:55:40;124.90;;;5.97;;
4603;SDS011;2314;48.272;11.562;2023-02-01T04:58:07;124.30;;;6.30;;
4603;SDS011;2314;48.272;11.562;2023-02-01T05:00:35;127.50;;;6.40;;
4603;SDS011;2314;48.272;11.562;2023-02-01T05:03:04;128.77;;;7.37;;
4603;SDS011;2314;48.272;11.562;2023-02-01T05:05:31;125.20;;;5.87;;
4603;SDS011;2314;48.272;11.562;2023-02-01T05:07:58;126.37;;;5.97;;
4603;SDS011;2314;48.272;11.562;2023-02-01T05:10:25;125.10;;;5.80;;
4603;SDS011;2314;48.272;11.562;2023-02-01T05:12:52;127.53;;;6.67;;
4603;SDS011;2314;48.272;11.562;2023-02-01T05:15:36;125.17;;;6.13;;
4603;SDS011;2314;48.272;11.562;2023-02-01T05:18:05;125.30;;;5.60;;
4603;SDS011;2314;48.272;11.562;2023-02-01T05:20:32;125.37;;;5.60;;
4603;SDS011;2314;48.272;11.562;2023-02-01T05:22:59;124.47;;;5.70;;
4603;SDS011;2314;48.272;11.562;2023-02-01T05:25:29;126.30;;;6.40;;
4603;SDS011;2314;48.272;11.562;2023-02-01T05:27:56;126.00;;;6.13;;
4603;SDS011;2314;48.272;11.562;2023-02-01T05:30:23;127.87;;;6.60;;
4603;SDS011;2314;48.272;11.562;2023-02-01T05:32:50;124.97;;;5.97;;
4603;SDS011;2314;48.272;11.562;2023-02-01T05:35:18;125.50;;;6.40;;
4603;SDS011;2314;48.272;11.562;2023-02-01T05:37:46;127.27;;;6.20;;
4603;SDS011;2314;48.272;11.562;2023-02-01T05:40:13;125.97;;;6.10;;
4603;SDS011;2314;48.272;11.562;2023-02-01T05:42:40;125.07;;;6.30;;
4603;SDS011;2314;48.272;11.562;2023-02-01T05:45:07;124.50;;;6.03;;
4603;SDS011;2314;48.272;11.562;2023-02-01T05:47:35;127.20;;;6.23;;
4603;SDS011;2314;48.272;11.562;2023-02-01T05:50:02;122.77;;;5.90;;
4603;SDS011;2314;48.272;11.562;2023-02-01T05:52:32;123.90;;;5.70;;
4603;SDS011;2314;48.272;11.562;2023-02-01T05:54:59;129.27;;;6.47;;
4603;SDS011;2314;48.272;11.562;2023-02-01T05:57:26;126.13;;;6.60;;
4603;SDS011;2314;48.272;11.562;2023-02-01T05:59:53;128.17;;;7.00;;
4603;SDS011;2314;48.272;11.562;2023-02-01T06:02:20;123.30;;;5.77;;
4603;SDS011;2314;48.272;11.562;2023-02-01T06:04:49;122.77;;;5.47;;
4603;SDS011;2314;48.272;11.562;2023-02-01T06:07:16;125.17;;;6.33;;
4603;SDS011;2314;48.272;11.562;2023-02-01T06:09:44;124.97;;;6.30;;
4603;SDS011;2314;48.272;11.562;2023-02-01T06:12:11;126.07;;;6.37;;
4603;SDS011;2314;48.272;11.562;2023-02-01T06:14:38;124.43;;;5.70;;
4603;SDS011;2314;48.272;11.562;2023-02-01T06:17:08;124.90;;;5.87;;
4603;SDS011;2314;48.272;11.562;2023-02-01T06:19:35;126.10;;;6.43;;
4603;SDS011;2314;48.272;11.562;2023-02-01T06:22:02;126.57;;;5.57;;
4603;SDS011;2314;48.272;11.562;2023-02-01T06:24:31;126.67;;;6.00;;
4603;SDS011;2314;48.272;11.562;2023-02-01T06:26:59;124.70;;;6.03;;
4603;SDS011;2314;48.272;11.562;2023-02-01T06:29:26;125.83;;;6.07;;
4603;SDS011;2314;48.272;11.562;2023-02-01T06:31:53;124.83;;;6.00;;
4603;SDS011;2314;48.272;11.562;2023-02-01T06:34:20;126.70;;;6.27;;
4603;SDS011;2314;48.272;11.562;2023-02-01T06:36:48;125.93;;;6.50;;
4603;SDS011;2314;48.272;11.562;2023-02-01T06:39:15;125.53;;;6.27;;
4603;SDS011;2314;48.272;11.562;2023-02-01T06:41:42;127.67;;;5.80;;
4603;SDS011;2314;48.272;11.562;2023-02-01T06:44:14;123.67;;;6.10;;
4603;SDS011;2314;48.272;11.562;2023-02-01T06:46:41;124.27;;;6.13;;
4603;SDS011;2314;48.272;11.562;2023-02-01T06:49:08;126.07;;;6.77;;
4603;SDS011;2314;48.272;11.562;2023-02-01T06:51:35;125.70;;;5.57;;
4603;SDS011;2314;48.272;11.562;2023-02-01T06:54:02;126.80;;;7.00;;
4603;SDS011;2314;48.272;11.562;2023-02-01T06:56:29;129.43;;;6.57;;
4603;SDS011;2314;48.272;11.562;2023-02-01T06:58:57;128.30;;;6.30;;
4603;SDS011;2314;48.272;11.562;2023-02-01T07:01:26;125.90;;;6.30;;
4603;SDS011;2314;48.272;11.562;2023-02-01T07:03:53;124.77;;;6.33;;
4603;SDS011;2314;48.272;11.562;2023-02-01T07:06:20;126.67;;;6.27;;
4603;SDS011;2314;48.272;11.562;2023-02-01T07:08:48;127.93;;;6.90;;
4603;SDS011;2314;48.272;11.562;2023-02-01T07:11:16;128.87;;;6.10;;
4603;SDS011;2314;48.272;11.562;2023-02-01T07:13:44;124.07;;;5.83;;
4603;SDS011;2314;48.272;11.562;2023-02-01T07:16:12;124.27;;;6.13;;
4603;SDS011;2314;48.272;11.562;2023-02-01T07:18:42;128.70;;;6.90;;
4603;SDS011;2314;48.272;11.562;2023-02-01T07:21:10;126.97;;;7.30;;
4603;SDS011;2314;48.272;11.562;2023-02-01T07:23:38;123.93;;;5.80;;
4603;SDS011;2314;48.272;11.562;2023-02-01T07:26:05;124.17;;;5.60;;
4603;SDS011;2314;48.272;11.562;2023-02-01T07:28:34;126.30;;;6.60;;
4603;SDS011;2314;48.272;11.562;2023-02-01T07:31:02;123.37;;;5.67;;
4603;SDS011;2314;48.272;11.562;2023-02-01T07:33:30;125.77;;;5.97;;
4603;SDS011;2314;48.272;11.562;2023-02-01T07:35:59;125.70;;;5.33;;
4603;SDS011;2314;48.272;11.562;2023-02-01T07:38:29;127.27;;;6.00;;
4603;SDS011;2314;48.272;11.562;2023-02-01T07:40:57;125.73;;;5.63;;
4603;SDS011;2314;48.272;11.562;2023-02-01T07:43:24;127.90;;;6.30;;
4603;SDS011;2314;48.272;11.562;2023-02-01T07:45:52;122.93;;;5.20;;
4603;SDS011;2314;48.272;11.562;2023-02-01T07:48:20;123.57;;;6.03;;
4603;SDS011;2314;48.272;11.562;2023-02-01T07:50:48;126.60;;;5.67;;
4603;SDS011;2314;48.272;11.562;2023-02-01T07:53:24;123.67;;;5.47;;
4603;SDS011;2314;48.272;11.562;2023-02-01T07:55:54;127.00;;;6.20;;
4603;SDS011;2314;48.272;11.562;2023-02-01T07:58:22;124.50;;;5.50;;
4603;SDS011;2314;48.272;11.562;2023-02-01T08:00:49;128.50;;;5.67;;
4603;SDS011;2314;48.272;11.562;2023-02-01T08:03:34;122.80;;;5.43;;
4603;SDS011;2314;48.272;11.562;2023-02-01T08:06:02;123.80;;;5.33;;
4603;SDS011;2314;48.272;11.562;2023-02-01T08:08:32;122.93;;;4.80;;
4603;SDS011;2314;48.272;11.562;2023-02-01T08:11:00;123.07;;;5.30;;
4603;SDS011;2314;48.272;11.562;2023-02-01T08:13:30;123.27;;;5.40;;
4603;SDS011;2314;48.272;11.562;2023-02-01T08:15:57;127.90;;;4.93;;
4603;SDS011;2314;48.272;11.562;2023-02-01T08:18:25;124.17;;;5.30;;
4603;SDS011;2314;48.272;11.562;2023-02-01T08:20:52;121.37;;;4.40;;
4603;SDS011;2314;48.272;11.562;2023-02-01T08:23:20;123.23;;;4.60;;
4603;SDS011;2314;48.272;11.562;2023-02-01T08:25:49;121.63;;;4.90;;
4603;SDS011;2314;48.272;11.562;2023-02-01T08:28:16;124.30;;;4.60;;
4603;SDS011;2314;48.272;11.562;2023-02-01T08:30:43;125.47;;;5.37;;
4603;SDS011;2314;48.272;11.562;2023-02-01T08:33:10;121.77;;;5.00;;
4603;SDS011;2314;48.272;11.562;2023-02-01T08:35:37;123.80;;;4.80;;
4603;SDS011;2314;48.272;11.562;2023-02-01T08:38:05;123.30;;;5.40;;
4603;SDS011;2314;48.272;11.562;2023-02-01T08:40:32;123.03;;;4.90;;
4603;SDS011;2314;48.272;11.562;2023-02-01T08:43:00;123.37;;;5.27;;
4603;SDS011;2314;48.272;11.562;2023-02-01T08:45:28;122.80;;;4.90;;
4603;SDS011;2314;48.272;11.562;2023-02-01T08:47:55;122.53;;;5.23;;
4603;SDS011;2314;48.272;11.562;2023-02-01T08:50:24;122.27;;;5.00;;
4603;SDS011;2314;48.272;11.562;2023-02-01T08:52:52;125.30;;;5.17;;
4603;SDS011;2314;48.272;11.562;2023-02-01T08:55:20;124.73;;;5.10;;
4603;SDS011;2314;48.272;11.562;2023-02-01T08:57:47;123.30;;;4.60;;
4603;SDS011;2314;48.272;11.562;2023-02-01T09:00:16;122.13;;;5.03;;
4603;SDS011;2314;48.272;11.562;2023-02-01T09:02:44;124.30;;;4.67;;
4603;SDS011;2314;48.272;11.562;2023-02-01T09:05:12;121.83;;;5.20;;
4603;SDS011;2314;48.272;11.562;2023-02-01T09:07:41;124.67;;;5.23;;
4603;SDS011;2314;48.272;11.562;2023-02-01T09:10:09;121.47;;;4.10;;
4603;SDS011;2314;48.272;11.562;2023-02-01T09:12:37;127.00;;;4.80;;
4603;SDS011;2314;48.272;11.562;2023-02-01T09:15:04;122.80;;;5.10;;
4603;SDS011;2314;48.272;11.562;2023-02-01T09:17:34;122.67;;;4.73;;
4603;SDS011;2314;48.272;11.562;2023-02-01T09:20:02;123.70;;;5.17;;
4603;SDS011;2314;48.272;11.562;2023-02-01T09:22:30;123.63;;;4.60;;
4603;SDS011;2314;48.272;11.562;2023-02-01T09:24:57;123.57;;;5.30;;
4603;SDS011;2314;48.272;11.562;2023-02-01T09:27:30;121.90;;;4.90;;
4603;SDS011;2314;48.272;11.562;2023-02-01T09:29:57;132.57;;;5.40;;
4603;SDS011;2314;48.272;11.562;2023-02-01T09:32:24;121.50;;;4.70;;
4603;SDS011;2314;48.272;11.562;2023-02-01T09:34:53;121.60;;;4.60;;
4603;SDS011;2314;48.272;11.562;2023-02-01T09:37:20;125.70;;;5.10;;
4603;SDS011;2314;48.272;11.562;2023-02-01T09:39:47;121.97;;;4.23;;
4603;SDS011;2314;48.272;11.562;2023-02-01T09:42:16;121.97;;;4.30;;
4603;SDS011;2314;48.272;11.562;2023-02-01T09:45:04;121.37;;;4.40;;
4603;SDS011;2314;48.272;11.562;2023-02-01T09:47:43;123.80;;;4.40;;
4603;SDS011;2314;48.272;11.562;2023-02-01T09:50:17;122.90;;;4.77;;
4603;SDS011;2314;48.272;11.562;2023-02-01T09:52:51;120.60;;;4.30;;
4603;SDS011;2314;48.272;11.562;2023-02-01T09:55:26;121.47;;;4.60;;
4603;SDS011;2314;48.272;11.562;2023-02-01T09:58:03;121.47;;;4.37;;
4603;SDS011;2314;48.272;11.562;2023-02-01T10:00:37;122.40;;;4.90;;
4603;SDS011;2314;48.272;11.562;2023-02-01T10:03:08;121.60;;;4.87;;
4603;SDS011;2314;48.272;11.562;2023-02-01T10:05:47;120.60;;;4.40;;
4603;SDS011;2314;48.272;11.562;2023-02-01T10:08:33;133.37;;;5.00;;
4603;SDS011;2314;48.272;11.562;2023-02-01T10:11:22;120.60;;;4.53;;
4603;SDS011;2314;48.272;11.562;2023-02-01T10:14:14;122.13;;;4.40;;
4603;SDS011;2314;48.272;11.562;2023-02-01T10:16:59;122.73;;;4.40;;
4603;SDS011;2314;48.272;11.562;2023-02-01T10:19:39;123.43;;;4.77;;
4603;SDS011;2314;48.272;11.562;2023-02-01T10:22:16;124.00;;;4.83;;
4603;SDS011;2314;48.272;11.562;2023-02-01T10:25:02;122.60;;;4.80;;
4603;SDS011;2314;48.272;11.562;2023-02-01T10:27:35;123.80;;;4.83;;
4603;SDS011;2314;48.272;11.562;2023-02-01T10:30:06;124.70;;;5.07;;
4603;SDS011;2314;48.272;11.562;2023-02-01T10:32:44;126.10;;;5.30;;
4603;SDS011;2314;48.272;11.562;2023-02-01T10:35:21;122.20;;;4.70;;
4603;SDS011;2314;48.272;11.562;2023-02-01T10:37:54;133.73;;;5.30;;
4603;SDS011;2314;48.272;11.562;2023-02-01T10:40:26;124.97;;;4.87;;
4603;SDS011;2314;48.272;11.562;2023-02-01T10:42:54;128.00;;;5.40;;
4603;SDS011;2314;48.272;11.562;2023-02-01T10:45:27;131.27;;;5.83;;
4603;SDS011;2314;48.272;11.562;2023-02-01T10:47:57;126.93;;;5.20;;
4603;SDS011;2314;48.272;11.562;2023-02-01T10:50:29;124.77;;;4.87;;
4603;SDS011;2314;48.272;11.562;2023-02-01T10:53:06;124.47;;;4.60;;
4603;SDS011;2314;48.272;11.562;2023-02-01T10:55:39;123.43;;;4.90;;
4603;SDS011;2314;48.272;11.562;2023-02-01T10:58:14;126.47;;;4.63;;
4603;SDS011;2314;48.272;11.562;2023-02-01T11:00:45;124.80;;;4.37;;
4603;SDS011;2314;48.272;11.562;2023-02-01T11:06:10;122.80;;;5.00;;
4603;SDS011;2314;48.272;11.562;2023-02-01T11:08:54;121.77;;;4.50;;
4603;SDS011;2314;48.272;11.562;2023-02-01T11:11:24;125.33;;;4.43;;
4603;SDS011;2314;48.272;11.562;2023-02-01T11:13:52;121.50;;;4.40;;
4603;SDS011;2314;48.272;11.562;2023-02-01T11:16:22;122.77;;;4.77;;
4603;SDS011;2314;48.272;11.562;2023-02-01T11:18:59;123.27;;;4.60;;
4603;SDS011;2314;48.272;11.562;2023-02-01T11:21:26;123.50;;;4.50;;
4603;SDS011;2314;48.272;11.562;2023-02-01T11:23:54;122.20;;;4.50;;
4603;SDS011;2314;48.272;11.562;2023-02-01T11:26:26;123.60;;;4.73;;
4603;SDS011;2314;48.272;11.562;2023-02-01T11:28:56;122.80;;;5.10;;
4603;SDS011;2314;48.272;11.562;2023-02-01T11:31:27;122.50;;;4.70;;
4603;SDS011;2314;48.272;11.562;2023-02-01T11:33:57;122.13;;;5.10;;
4603;SDS011;2314;48.272;11.562;2023-02-01T11:36:27;124.60;;;5.07;;
4603;SDS011;2314;48.272;11.562;2023-02-01T11:39:14;121.53;;;4.33;;
4603;SDS011;2314;48.272;11.562;2023-02-01T11:41:56;127.17;;;4.70;;
4603;SDS011;2314;48.272;11.562;2023-02-01T11:44:30;122.10;;;5.33;;
4603;SDS011;2314;48.272;11.562;2023-02-01T11:47:21;130.33;;;4.97;;
4603;SDS011;2314;48.272;11.562;2023-02-01T11:49:51;125.20;;;5.33;;
4603;SDS011;2314;48.272;11.562;2023-02-01T11:52:25;123.80;;;4.90;;
4603;SDS011;2314;48.272;11.562;2023-02-01T11:55:15;124.77;;;5.33;;
4603;SDS011;2314;48.272;11.562;2023-02-01T11:58:02;126.07;;;5.27;;
4603;SDS011;2314;48.272;11.562;2023-02-01T12:00:47;123.03;;;5.00;;
4603;SDS011;2314;48.272;11.562;2023-02-01T12:03:32;123.33;;;5.37;;
4603;SDS011;2314;48.272;11.562;2023-02-01T12:06:33;126.77;;;5.73;;
4603;SDS011;2314;48.272;11.562;2023-02-01T12:09:17;127.87;;;5.40;;
4603;SDS011;2314;48.272;11.562;2023-02-01T12:12:17;124.40;;;5.53;;
4603;SDS011;2314;48.272;11.562;2023-02-01T12:14:57;121.40;;;4.93;;
4603;SDS011;2314;48.272;11.562;2023-02-01T12:20:45;125.37;;;5.37;;
4603;SDS011;2314;48.272;11.562;2023-02-01T12:23:35;122.80;;;5.30;;
4603;SDS011;2314;48.272;11.562;2023-02-01T12:26:31;126.20;;;5.73;;
4603;SDS011;2314;48.272;11.562;2023-02-01T12:29:33;124.93;;;5.50;;
4603;SDS011;2314;48.272;11.562;2023-02-01T12:32:19;124.30;;;4.90;;
4603;SDS011;2314;48.272;11.562;2023-02-01T12:35:01;125.90;;;4.53;;
4603;SDS011;2314;48.272;11.562;2023-02-01T12:38:05;125.50;;;5.23;;
4603;SDS011;2314;48.272;11.562;2023-02-01T12:41:02;121.80;;;4.57;;
4603;SDS011;2314;48.272;11.562;2023-02-01T12:43:51;124.17;;;5.07;;
4603;SDS011;2314;48.272;11.562;2023-02-01T12:46:25;123.50;;;5.03;;
4603;SDS011;2314;48.272;11.562;2023-02-01T12:48:59;125.50;;;5.30;;
4603;SDS011;2314;48.272;11.562;2023-02-01T12:51:33;121.57;;;4.50;;
4603;SDS011;2314;48.272;11.562;2023-02-01T12:54:04;131.53;;;5.13;;
4603;SDS011;2314;48.272;11.562;2023-02-01T12:56:42;122.57;;;4.70;;
4603;SDS011;2314;48.272;11.562;2023-02-01T12:59:16;127.60;;;5.00;;
4603;SDS011;2314;48.272;11.562;2023-02-01T13:01:53;122.67;;;4.40;;
4603;SDS011;2314;48.272;11.562;2023-02-01T13:04:29;131.73;;;5.90;;
4603;SDS011;2314;48.272;11.562;2023-02-01T13:07:04;126.37;;;4.70;;
4603;SDS011;2314;48.272;11.562;2023-02-01T13:09:39;125.87;;;4.67;;
4603;SDS011;2314;48.272;11.562;2023-02-01T13:12:12;128.57;;;4.90;;
4603;SDS011;2314;48.272;11.562;2023-02-01T13:14:44;125.47;;;4.43;;
4603;SDS011;2314;48.272;11.562;2023-02-01T13:17:18;130.57;;;5.10;;
4603;SDS011;2314;48.272;11.562;2023-02-01T13:19:50;122.63;;;4.67;;
4603;SDS011;2314;48.272;11.562;2023-02-01T13:22:23;124.90;;;4.30;;
4603;SDS011;2314;48.272;11.562;2023-02-01T13:24:55;126.33;;;5.03;;
4603;SDS011;2314;48.272;11.562;2023-02-01T13:27:26;125.30;;;5.47;;
4603;SDS011;2314;48.272;11.562;2023-02-01T13:29:56;125.47;;;5.20;;
4603;SDS011;2314;48.272;11.562;2023-02-01T13:32:37;127.70;;;5.20;;
4603;SDS011;2314;48.272;11.562;2023-02-01T13:35:55;123.10;;;4.97;;
4603;SDS011;2314;48.272;11.562;2023-02-01T13:42:02;120.93;;;4.57;;
4603;SDS011;2314;48.272;11.562;2023-02-01T13:44:33;125.27;;;5.13;;
4603;SDS011;2314;48.272;11.562;2023-02-01T13:47:09;129.97;;;4.90;;
4603;SDS011;2314;48.272;11.562;2023-02-01T13:49:59;126.90;;;5.10;;
4603;SDS011;2314;48.272;11.562;2023-02-01T13:52:33;123.00;;;4.90;;
4603;SDS011;2314;48.272;11.562;2023-02-01T13:55:14;125.27;;;5.37;;
4603;SDS011;2314;48.272;11.562;2023-02-01T13:57:52;121.57;;;4.50;;
4603;SDS011;2314;48.272;11.562;2023-02-01T14:00:33;122.37;;;4.67;;
4603;SDS011;2314;48.272;11.562;2023-02-01T14:03:12;125.67;;;5.07;;
4603;SDS011;2314;48.272;11.562;2023-02-01T14:09:16;133.73;;;5.07;;
4603;SDS011;2314;48.272;11.562;2023-02-01T14:11:47;122.90;;;4.70;;
4603;SDS011;2314;48.272;11.562;2023-02-01T14:23:18;123.90;;;4.97;;
4603;SDS011;2314;48.272;11.562;2023-02-01T14:28:42;122.30;;;4.80;;
4603;SDS011;2314;48.272;11.562;2023-02-01T14:34:20;122.27;;;5.03;;
4603;SDS011;2314;48.272;11.562;2023-02-01T14:36:55;122.47;;;4.57;;
4603;SDS011;2314;48.272;11.562;2023-02-01T14:39:29;122.83;;;5.47;;
4603;SDS011;2314;48.272;11.562;2023-02-01T14:42:05;124.47;;;5.03;;
4603;SDS011;2314;48.272;11.562;2023-02-01T14:44:47;122.60;;;5.10;;
4603;SDS011;2314;48.272;11.562;2023-02-01T14:53:13;123.67;;;4.43;;
4603;SDS011;2314;48.272;11.562;2023-02-01T14:55:50;128.37;;;4.60;;
4603;SDS011;2314;48.272;11.562;2023-02-01T14:58:26;123.33;;;4.20;;
4603;SDS011;2314;48.272;11.562;2023-02-01T15:01:02;121.50;;;4.20;;
4603;SDS011;2314;48.272;11.562;2023-02-01T15:03:38;122.47;;;4.37;;
4603;SDS011;2314;48.272;11.562;2023-02-01T15:09:08;122.73;;;4.10;;
4603;SDS011;2314;48.272;11.562;2023-02-01T15:11:56;121.03;;;3.90;;
4603;SDS011;2314;48.272;11.562;2023-02-01T15:14:35;123.20;;;3.60;;
4603;SDS011;2314;48.272;11.562;2023-02-01T15:17:17;128.10;;;4.60;;
4603;SDS011;2314;48.272;11.562;2023-02-01T15:19:52;125.77;;;4.27;;
4603;SDS011;2314;48.272;11.562;2023-02-01T15:22:20;121.17;;;3.80;;
4603;SDS011;2314;48.272;11.562;2023-02-01T15:24:52;130.03;;;4.63;;
4603;SDS011;2314;48.272;11.562;2023-02-01T15:27:21;124.30;;;4.10;;
4603;SDS011;2314;48.272;11.562;2023-02-01T15:29:49;123.20;;;4.30;;
4603;SDS011;2314;48.272;11.562;2023-02-01T15:32:33;122.47;;;3.83;;
4603;SDS011;2314;48.272;11.562;2023-02-01T15:35:04;123.87;;;3.90;;
4603;SDS011;2314;48.272;11.562;2023-02-01T15:37:50;127.13;;;3.90;;
4603;SDS011;2314;48.272;11.562;2023-02-01T15:40:20;135.30;;;4.97;;
4603;SDS011;2314;48.272;11.562;2023-02-01T15:42:51;124.77;;;4.30;;
4603;SDS011;2314;48.272;11.562;2023-02-01T15:45:20;121.27;;;3.73;;
4603;SDS011;2314;48.272;11.562;2023-02-01T15:47:51;124.97;;;4.30;;
4603;SDS011;2314;48.272;11.562;2023-02-01T15:50:21;123.17;;;4.00;;